createdAt,value
2018-04-25T00:02:17.589Z,100456
2018-04-25T00:04:45.747Z,100452
2018-04-25T00:07:13.896Z,100458
2018-04-25T00:09:42.104Z,100453
2018-04-25T00:12:10.267Z,100447
2018-04-25T00:14:39.210Z,100435
2018-04-25T00:17:07.394Z,100432
2018-04-25T00:19:35.552Z,100436
2018-04-25T00:22:03.735Z,100435
2018-04-25T00:24:31.869Z,100440
2018-04-25T00:27:00.026Z,100439
2018-04-25T00:29:28.149Z,100439
2018-04-25T00:31:56.297Z,100437
2018-04-25T00:34:24.425Z,100423
2018-04-25T00:36:53.315Z,100425
2018-04-25T00:39:22.261Z,100411
2018-04-25T00:41:50.510Z,100406
2018-04-25T00:44:18.698Z,100402
2018-04-25T00:46:46.864Z,100396
2018-04-25T00:49:14.993Z,100391
2018-04-25T00:51:43.951Z,100399
2018-04-25T00:54:12.081Z,100394
2018-04-25T00:56:40.232Z,100389
2018-04-25T00:59:09.173Z,100393
2018-04-25T01:01:37.373Z,100382
2018-04-25T01:04:05.604Z,100379
2018-04-25T01:06:33.798Z,100385
2018-04-25T01:09:01.958Z,100369
2018-04-25T01:11:30.085Z,100367
2018-04-25T01:13:59.034Z,100360
2018-04-25T01:16:27.170Z,100355
2018-04-25T01:18:55.322Z,100352
2018-04-25T01:21:24.269Z,100349
2018-04-25T01:23:52.396Z,100342
2018-04-25T01:26:20.581Z,100343
2018-04-25T01:28:51.125Z,100338
2018-04-25T01:34:30.057Z,100330
2018-04-25T01:36:58.241Z,100323
2018-04-25T01:39:32.006Z,100319
2018-04-25T01:42:01.466Z,100310
2018-04-25T01:44:31.058Z,100311
2018-04-25T01:47:16.670Z,100308
2018-04-25T01:49:56.591Z,100302
2018-04-25T01:52:42.673Z,100285
2018-04-25T01:55:28.710Z,100280
2018-04-25T01:58:14.886Z,100284
2018-04-25T02:01:01.070Z,100283
2018-04-25T02:04:00.016Z,100272
2018-04-25T02:06:28.932Z,100256
2018-04-25T02:08:57.096Z,100233
2018-04-25T02:11:25.263Z,100234
2018-04-25T02:13:53.460Z,100236
2018-04-25T02:16:21.618Z,100227
2018-04-25T02:18:49.756Z,100235
2018-04-25T02:21:18.750Z,100225
2018-04-25T02:23:46.906Z,100225
2018-04-25T02:26:15.071Z,100224
2018-04-25T02:28:43.275Z,100216
2018-04-25T02:31:12.180Z,100222
2018-04-25T02:33:41.074Z,100210
2018-04-25T02:36:09.274Z,100200
2018-04-25T02:38:37.434Z,100194
2018-04-25T02:41:05.637Z,100187
2018-04-25T02:43:33.872Z,100178
2018-04-25T02:46:02.786Z,100183
2018-04-25T02:48:30.943Z,100182
2018-04-25T02:50:59.123Z,100173
2018-04-25T02:53:27.302Z,100182
2018-04-25T02:55:55.460Z,100173
2018-04-25T02:58:23.638Z,100169
2018-04-25T03:00:51.769Z,100165
2018-04-25T03:03:19.977Z,100148
2018-04-25T03:05:48.130Z,100134
2018-04-25T03:08:17.110Z,100142
2018-04-25T03:10:46.033Z,100130
2018-04-25T03:13:14.210Z,100131
2018-04-25T03:15:42.345Z,100133
2018-04-25T03:18:10.488Z,100130
2018-04-25T03:20:38.657Z,100125
2018-04-25T03:23:06.821Z,100118
2018-04-25T03:25:35.058Z,100116
2018-04-25T03:28:03.220Z,100108
2018-04-25T03:30:32.189Z,100108
2018-04-25T03:33:00.360Z,100096
2018-04-25T03:35:28.505Z,100097
2018-04-25T03:37:56.648Z,100092
2018-04-25T03:40:24.795Z,100090
2018-04-25T03:42:52.954Z,100088
2018-04-25T03:45:21.120Z,100093
2018-04-25T03:47:49.273Z,100093
2018-04-25T03:50:17.428Z,100083
2018-04-25T03:52:45.608Z,100084
2018-04-25T03:55:13.777Z,100081
2018-04-25T03:57:42.876Z,100070
2018-04-25T04:00:11.034Z,100070
2018-04-25T04:02:39.221Z,100074
2018-04-25T04:05:07.345Z,100074
2018-04-25T04:07:36.295Z,100067
2018-04-25T04:10:04.474Z,100066
2018-04-25T04:12:32.602Z,100064
2018-04-25T04:15:00.777Z,100069
2018-04-25T04:17:29.258Z,100070
2018-04-25T04:19:57.400Z,100067
2018-04-25T04:22:25.944Z,100062
2018-04-25T04:24:54.160Z,100061
2018-04-25T04:27:22.277Z,100055
2018-04-25T04:29:50.537Z,100045
2018-04-25T04:32:18.734Z,100042
2018-04-25T04:34:46.906Z,100040
2018-04-25T04:37:15.090Z,100033
2018-04-25T04:39:43.282Z,100045
2018-04-25T04:42:11.465Z,100032
2018-04-25T04:44:39.661Z,100025
2018-04-25T04:47:07.856Z,100029
2018-04-25T04:49:36.141Z,100029
2018-04-25T04:52:04.230Z,100025
2018-04-25T04:54:32.419Z,100036
2018-04-25T04:57:00.577Z,100022
2018-04-25T04:59:28.706Z,100026
2018-04-25T05:01:56.902Z,100031
2018-04-25T05:04:25.061Z,100014
2018-04-25T05:06:53.217Z,100024
2018-04-25T05:09:21.442Z,100014
2018-04-25T05:11:49.629Z,100027
2018-04-25T05:14:17.818Z,100023
2018-04-25T05:16:46.022Z,100018
2018-04-25T05:19:14.148Z,100019
2018-04-25T05:21:42.318Z,100028
2018-04-25T05:24:10.482Z,100019
2018-04-25T05:26:38.641Z,100022
2018-04-25T05:29:06.771Z,100022
2018-04-25T05:31:35.700Z,100020
2018-04-25T05:34:03.884Z,100014
2018-04-25T05:36:32.045Z,100009
2018-04-25T05:39:00.247Z,100014
2018-04-25T05:41:28.378Z,100020
2018-04-25T05:43:56.564Z,100003
2018-04-25T05:46:24.717Z,100005
2018-04-25T05:48:52.876Z,100011
2018-04-25T05:51:21.787Z,100007
2018-04-25T05:53:49.958Z,100002
2018-04-25T05:56:18.142Z,100000
2018-04-25T05:58:46.283Z,100002
2018-04-25T06:01:14.409Z,99996
2018-04-25T06:03:42.587Z,99999
2018-04-25T06:06:10.733Z,100000
2018-04-25T06:08:38.915Z,100002
2018-04-25T06:11:07.045Z,99995
2018-04-25T06:13:35.994Z,99988
2018-04-25T06:16:04.112Z,99979
2018-04-25T06:18:32.242Z,99968
2018-04-25T06:21:00.823Z,99968
2018-04-25T06:23:29.080Z,99964
2018-04-25T06:25:57.228Z,99968
2018-04-25T06:28:25.361Z,99970
2018-04-25T06:30:53.517Z,99968
2018-04-25T06:33:21.783Z,99963
2018-04-25T06:35:49.925Z,99961
2018-04-25T06:38:18.105Z,99956
2018-04-25T06:40:46.225Z,99956
2018-04-25T06:43:14.342Z,99956
2018-04-25T06:45:42.480Z,99944
2018-04-25T06:48:11.400Z,99956
2018-04-25T06:50:39.612Z,99953
2018-04-25T06:53:07.862Z,99930
2018-04-25T06:55:36.010Z,99940
2018-04-25T06:58:04.184Z,99948
2018-04-25T07:00:32.296Z,99949
2018-04-25T07:03:00.437Z,99949
2018-04-25T07:05:28.568Z,99945
2018-04-25T07:07:56.786Z,99950
2018-04-25T07:10:24.984Z,99958
2018-04-25T07:12:53.966Z,99944
2018-04-25T07:15:22.169Z,99948
2018-04-25T07:17:50.346Z,99938
2018-04-25T07:20:18.632Z,99948
2018-04-25T07:22:47.537Z,99939
2018-04-25T07:25:16.423Z,99945
2018-04-25T07:27:45.358Z,99940
2018-04-25T07:30:13.481Z,99946
2018-04-25T07:32:42.440Z,99947
2018-04-25T07:35:10.603Z,99946
2018-04-25T07:37:38.744Z,99945
2018-04-25T07:40:06.979Z,99947
2018-04-25T07:42:35.096Z,99938
2018-04-25T07:45:03.213Z,99942
2018-04-25T07:47:31.372Z,99946
2018-04-25T07:49:59.593Z,99945
2018-04-25T07:52:28.518Z,99937
2018-04-25T07:54:56.652Z,99948
2018-04-25T07:57:25.530Z,99926
2018-04-25T07:59:53.707Z,99917
2018-04-25T08:02:22.592Z,99927
2018-04-25T08:04:50.770Z,99929
2018-04-25T08:07:19.689Z,99928
2018-04-25T08:09:47.816Z,99934
2018-04-25T08:12:33.822Z,99920
2018-04-25T08:15:20.051Z,99924
2018-04-25T08:18:06.119Z,99920
2018-04-25T08:23:55.545Z,99919
2018-04-25T08:26:23.701Z,99919
2018-04-25T08:28:52.261Z,99909
2018-04-25T08:31:21.151Z,99917
2018-04-25T08:33:50.082Z,99909
2018-04-25T08:36:18.234Z,99919
2018-04-25T08:38:46.418Z,99906
2018-04-25T08:41:14.532Z,99923
2018-04-25T08:43:42.656Z,99920
2018-04-25T08:46:10.817Z,99910
2018-04-25T08:48:38.939Z,99929
2018-04-25T08:51:07.081Z,99915
2018-04-25T08:53:35.228Z,99913
2018-04-25T08:56:04.142Z,99938
2018-04-25T08:58:32.314Z,99903
2018-04-25T09:01:00.454Z,99910
2018-04-25T09:03:29.376Z,99904
2018-04-25T09:05:57.562Z,99905
2018-04-25T09:08:26.312Z,99902
2018-04-25T09:10:55.227Z,99902
2018-04-25T09:13:23.399Z,99891
2018-04-25T09:15:51.520Z,99888
2018-04-25T09:18:19.761Z,99882
2018-04-25T09:20:47.919Z,99897
2018-04-25T09:23:16.085Z,99886
2018-04-25T09:25:44.211Z,99878
2018-04-25T09:28:12.457Z,99885
2018-04-25T09:30:40.601Z,99892
2018-04-25T09:33:08.801Z,99881
2018-04-25T09:35:36.921Z,99892
2018-04-25T09:38:05.832Z,99913
2018-04-25T09:40:34.019Z,99885
2018-04-25T09:43:02.169Z,99891
2018-04-25T09:45:30.345Z,99871
2018-04-25T09:47:58.478Z,99863
2018-04-25T09:50:26.651Z,99865
2018-04-25T09:52:55.565Z,99857
2018-04-25T09:55:24.485Z,99871
2018-04-25T09:57:52.760Z,99851
2018-04-25T10:00:20.790Z,99844
2018-04-25T10:02:54.567Z,99832
2018-04-25T10:05:22.788Z,99841
2018-04-25T10:07:51.693Z,99858
2018-04-25T10:10:19.818Z,99841
2018-04-25T10:12:47.948Z,99852
2018-04-25T10:15:16.128Z,99844
2018-04-25T10:17:45.097Z,99846
2018-04-25T10:20:13.224Z,99853
2018-04-25T10:22:41.369Z,99848
2018-04-25T10:25:09.517Z,99860
2018-04-25T10:27:37.685Z,99840
2018-04-25T10:30:05.882Z,99841
2018-04-25T10:32:34.015Z,99846
2018-04-25T10:35:02.934Z,99833
2018-04-25T10:37:31.078Z,99837
2018-04-25T10:40:00.277Z,99858
2018-04-25T10:42:29.606Z,99842
2018-04-25T10:44:57.794Z,99843
2018-04-25T10:47:25.950Z,99825
2018-04-25T10:49:54.126Z,99837
2018-04-25T10:52:22.306Z,99825
2018-04-25T10:54:50.459Z,99826
2018-04-25T10:57:18.631Z,99818
2018-04-25T10:59:46.863Z,99820
2018-04-25T11:02:15.038Z,99813
2018-04-25T11:04:43.198Z,99843
2018-04-25T11:07:11.349Z,99826
2018-04-25T11:09:39.513Z,99828
2018-04-25T11:12:07.658Z,99826
2018-04-25T11:14:35.820Z,99836
2018-04-25T11:17:04.739Z,99878
2018-04-25T11:19:32.901Z,99885
2018-04-25T11:22:01.046Z,99925
2018-04-25T11:24:30.002Z,99951
2018-04-25T11:26:58.134Z,99939
2018-04-25T11:29:27.151Z,99968
2018-04-25T11:31:55.424Z,99955
2018-04-25T11:34:23.533Z,99937
2018-04-25T11:36:51.657Z,99927
2018-04-25T11:39:19.842Z,99942
2018-04-25T11:41:48.019Z,99933
2018-04-25T11:44:16.176Z,99934
2018-04-25T11:46:44.351Z,99936
2018-04-25T11:49:12.501Z,99939
2018-04-25T11:51:41.372Z,99941
2018-04-25T11:54:10.286Z,99956
2018-04-25T11:56:38.425Z,99939
2018-04-25T11:59:06.638Z,99938
2018-04-25T12:01:34.840Z,99940
2018-04-25T12:04:02.961Z,99941
2018-04-25T12:06:31.891Z,99928
2018-04-25T12:09:00.039Z,99928
2018-04-25T12:11:28.218Z,99909
2018-04-25T12:13:56.462Z,99917
2018-04-25T12:16:25.419Z,99914
2018-04-25T12:18:53.573Z,99905
2018-04-25T12:21:21.838Z,99920
2018-04-25T12:23:50.028Z,99934
2018-04-25T12:26:18.174Z,99932
2018-04-25T12:28:46.325Z,99920
2018-04-25T12:31:15.266Z,99920
2018-04-25T12:33:43.442Z,99919
2018-04-25T12:36:11.602Z,99915
2018-04-25T12:38:39.779Z,99926
2018-04-25T12:41:07.900Z,99933
2018-04-25T12:43:36.051Z,99938
2018-04-25T12:46:04.192Z,99935
2018-04-25T12:48:32.308Z,99923
2018-04-25T12:51:00.531Z,99915
2018-04-25T12:53:28.677Z,99929
2018-04-25T12:55:57.617Z,99932
2018-04-25T12:58:25.772Z,99945
2018-04-25T13:00:53.949Z,99956
2018-04-25T13:03:22.099Z,99970
2018-04-25T13:05:50.253Z,99999
2018-04-25T13:08:19.178Z,99986
2018-04-25T13:10:48.561Z,100011
2018-04-25T13:13:16.665Z,99961
2018-04-25T13:15:44.814Z,99953
2018-04-25T13:18:13.734Z,99961
2018-04-25T13:20:41.918Z,99956
2018-04-25T13:23:10.098Z,99950
2018-04-25T13:25:38.216Z,99981
2018-04-25T13:28:06.387Z,99966
2018-04-25T13:30:34.551Z,99951
2018-04-25T13:33:03.513Z,99965
2018-04-25T13:35:31.675Z,99958
2018-04-25T13:37:59.856Z,99971
2018-04-25T13:40:28.018Z,99968
2018-04-25T13:42:56.201Z,99963
2018-04-25T13:45:24.389Z,99992
2018-04-25T13:47:53.415Z,99989
2018-04-25T13:50:21.600Z,99986
2018-04-25T13:52:49.828Z,100005
2018-04-25T13:55:18.875Z,99985
2018-04-25T13:57:47.154Z,100016
2018-04-25T14:00:15.679Z,100026
2018-04-25T14:02:44.698Z,100042
2018-04-25T14:05:12.838Z,100040
2018-04-25T14:07:41.036Z,100043
2018-04-25T14:10:09.241Z,100043
2018-04-25T14:12:37.389Z,100069
2018-04-25T14:15:05.585Z,100082
2018-04-25T14:17:33.756Z,100061
2018-04-25T14:20:02.656Z,100070
2018-04-25T14:22:31.231Z,100102
2018-04-25T14:24:59.549Z,100102
2018-04-25T14:27:27.736Z,100101
2018-04-25T14:29:56.667Z,100129
2018-04-25T14:32:24.867Z,100128
2018-04-25T14:34:53.021Z,100143
2018-04-25T14:37:21.139Z,100140
2018-04-25T14:39:49.377Z,100147
2018-04-25T14:42:17.537Z,100155
2018-04-25T14:44:45.705Z,100170
2018-04-25T14:47:13.894Z,100174
2018-04-25T14:49:42.061Z,100205
2018-04-25T14:52:10.257Z,100218
2018-04-25T14:54:38.554Z,100204
2018-04-25T14:57:06.649Z,100190
2018-04-25T14:59:34.809Z,100197
2018-04-25T15:02:03.717Z,100205
2018-04-25T15:04:31.874Z,100200
2018-04-25T15:07:00.816Z,100205
2018-04-25T15:09:28.997Z,100216
2018-04-25T15:11:58.397Z,100235
2018-04-25T15:14:26.512Z,100201
2018-04-25T15:16:54.707Z,100223
2018-04-25T15:19:22.873Z,100228
2018-04-25T15:21:51.088Z,100213
2018-04-25T15:24:19.253Z,100208
2018-04-25T15:26:47.398Z,100204
2018-04-25T15:29:15.527Z,100233
2018-04-25T15:31:43.715Z,100231
2018-04-25T15:34:12.751Z,100243
2018-04-25T15:36:40.909Z,100240
2018-04-25T15:39:09.103Z,100248
2018-04-25T15:41:37.277Z,100247
2018-04-25T15:44:05.458Z,100242
2018-04-25T15:46:33.597Z,100226
2018-04-25T15:49:02.471Z,100246
2018-04-25T15:51:30.635Z,100272
2018-04-25T15:53:59.897Z,100266
2018-04-25T15:56:28.101Z,100256
2018-04-25T15:58:57.008Z,100248
2018-04-25T16:01:25.226Z,100256
2018-04-25T16:03:53.374Z,100268
2018-04-25T16:06:21.554Z,100276
2018-04-25T16:08:49.677Z,100280
2018-04-25T16:11:17.923Z,100283
2018-04-25T16:13:46.088Z,100276
2018-04-25T16:16:14.241Z,100288
2018-04-25T16:18:42.415Z,100296
2018-04-25T16:21:10.633Z,100300
2018-04-25T16:23:38.815Z,100281
2018-04-25T16:26:06.940Z,100293
2018-04-25T16:28:35.090Z,100304
2018-04-25T16:31:04.036Z,100283
2018-04-25T16:33:32.215Z,100297
2018-04-25T16:36:00.386Z,100309
2018-04-25T16:38:28.543Z,100288
2018-04-25T16:40:56.676Z,100299
2018-04-25T16:43:24.866Z,100316
2018-04-25T16:45:53.081Z,100325
2018-04-25T16:48:21.317Z,100326
2018-04-25T16:50:49.960Z,100325
2018-04-25T16:53:18.877Z,100331
2018-04-25T16:55:47.077Z,100325
2018-04-25T16:58:15.268Z,100376
2018-04-25T17:00:43.431Z,100333
2018-04-25T17:03:11.601Z,100310
2018-04-25T17:05:39.911Z,100305
2018-04-25T17:08:09.056Z,100312
2018-04-25T17:10:37.224Z,100309
2018-04-25T17:13:05.735Z,100308
2018-04-25T17:15:34.016Z,100298
2018-04-25T17:18:02.322Z,100298
2018-04-25T17:20:30.490Z,100306
2018-04-25T17:22:59.807Z,100316
2018-04-25T17:25:28.173Z,100299
2018-04-25T17:27:57.195Z,100300
2018-04-25T17:30:25.498Z,100316
2018-04-25T17:32:53.689Z,100317
2018-04-25T17:35:21.959Z,100322
2018-04-25T17:37:50.233Z,100323
2018-04-25T17:40:18.454Z,100320
2018-04-25T17:42:46.846Z,100319
2018-04-25T17:45:15.436Z,100330
2018-04-25T17:47:43.737Z,100335
2018-04-25T17:50:12.074Z,100344
2018-04-25T17:52:40.257Z,100346
2018-04-25T17:55:08.456Z,100355
2018-04-25T17:57:36.796Z,100362
2018-04-25T18:00:05.752Z,100357
2018-04-25T18:02:35.089Z,100378
2018-04-25T18:05:03.335Z,100371
2018-04-25T18:07:32.679Z,100391
2018-04-25T18:10:01.056Z,100397
2018-04-25T18:12:29.274Z,100374
2018-04-25T18:14:58.295Z,100378
2018-04-25T18:17:26.481Z,100385
2018-04-25T18:19:54.794Z,100382
2018-04-25T18:22:23.323Z,100380
2018-04-25T18:24:51.596Z,100391
2018-04-25T18:27:19.875Z,100381
2018-04-25T18:29:48.163Z,100392
2018-04-25T18:32:16.396Z,100388
2018-04-25T18:34:45.419Z,100398
2018-04-25T18:37:13.720Z,100401
2018-04-25T18:39:43.123Z,100417
2018-04-25T18:42:11.698Z,100435
2018-04-25T18:44:40.018Z,100422
2018-04-25T18:47:08.284Z,100418
2018-04-25T18:49:36.513Z,100419
2018-04-25T18:55:03.182Z,100430
2018-04-25T18:57:31.419Z,100435
2018-04-25T19:00:00.761Z,100452
2018-04-25T19:02:29.122Z,100445
2018-04-25T19:05:00.023Z,100413
2018-04-25T19:07:28.259Z,100449
2018-04-25T19:09:56.909Z,100448
2018-04-25T19:12:25.167Z,100451
2018-04-25T19:14:54.121Z,100444
2018-04-25T19:17:22.257Z,100453
2018-04-25T19:19:50.480Z,100468
2018-04-25T19:22:18.663Z,100472
2018-04-25T19:24:47.583Z,100470
2018-04-25T19:27:15.969Z,100471
2018-04-25T19:29:44.221Z,100474
2018-04-25T19:32:12.459Z,100467
2018-04-25T19:34:40.650Z,100454
2018-04-25T19:37:08.821Z,100476
2018-04-25T19:39:37.017Z,100485
2018-04-25T19:42:05.945Z,100498
2018-04-25T19:44:34.100Z,100502
2018-04-25T19:47:02.222Z,100490
2018-04-25T19:49:30.474Z,100491
2018-04-25T19:51:58.729Z,100496
2018-04-25T19:54:26.911Z,100494
2018-04-25T19:56:55.070Z,100488
2018-04-25T19:59:23.218Z,100502
2018-04-25T20:01:52.150Z,100495
2018-04-25T20:04:20.347Z,100492
2018-04-25T20:06:48.518Z,100484
2018-04-25T20:09:16.692Z,100486
2018-04-25T20:11:45.203Z,100486
2018-04-25T20:14:13.419Z,100493
2018-04-25T20:16:41.553Z,100498
2018-04-25T20:19:10.564Z,100504
2018-04-25T20:21:38.715Z,100502
2018-04-25T20:24:08.552Z,100499
2018-04-25T20:26:36.725Z,100499
2018-04-25T20:29:05.348Z,100508
2018-04-25T20:31:33.524Z,100520
2018-04-25T20:34:01.677Z,100510
2018-04-25T20:36:29.866Z,100516
2018-04-25T20:38:58.006Z,100503
2018-04-25T20:41:26.140Z,100505
2018-04-25T20:43:54.884Z,100496
2018-04-25T20:46:23.040Z,100485
2018-04-25T20:48:51.181Z,100488
2018-04-25T20:51:20.101Z,100480
2018-04-25T20:53:48.233Z,100496
2018-04-25T20:56:16.388Z,100502
2018-04-25T20:58:44.608Z,100505
2018-04-25T21:01:12.774Z,100497
2018-04-25T21:03:41.170Z,100512
2018-04-25T21:06:09.353Z,100507
2018-04-25T21:08:37.539Z,100521
2018-04-25T21:11:05.740Z,100519
2018-04-25T21:13:33.871Z,100516
2018-04-25T21:16:02.248Z,100520
2018-04-25T21:18:30.480Z,100519
2018-04-25T21:20:59.404Z,100531
2018-04-25T21:23:27.533Z,100526
2018-04-25T21:25:55.711Z,100517
2018-04-25T21:28:24.669Z,100524
2018-04-25T21:30:52.831Z,100519
2018-04-25T21:33:20.973Z,100519
2018-04-25T21:35:49.122Z,100511
2018-04-25T21:38:18.030Z,100506
2018-04-25T21:40:46.203Z,100511
2018-04-25T21:43:14.387Z,100491
2018-04-25T21:45:42.563Z,100492
2018-04-25T21:48:10.704Z,100502
2018-04-25T21:50:39.655Z,100506
2018-04-25T21:53:07.783Z,100512
2018-04-25T21:55:36.789Z,100523
2018-04-25T21:58:04.946Z,100511
2018-04-25T22:00:33.194Z,100508
2018-04-25T22:03:01.372Z,100510
2018-04-25T22:05:30.704Z,100509
2018-04-25T22:07:58.891Z,100504
2018-04-25T22:10:27.013Z,100513
2018-04-25T22:12:55.182Z,100513
2018-04-25T22:15:23.325Z,100504
2018-04-25T22:17:51.482Z,100512
2018-04-25T22:20:19.631Z,100505
2018-04-25T22:22:47.781Z,100502
2018-04-25T22:25:16.689Z,100505
2018-04-25T22:27:45.611Z,100503
2018-04-25T22:30:13.794Z,100492
2018-04-25T22:32:41.962Z,100493
2018-04-25T22:35:10.101Z,100496
2018-04-25T22:37:39.017Z,100494
2018-04-25T22:40:07.172Z,100493
2018-04-25T22:42:35.288Z,100503
2018-04-25T22:45:03.422Z,100514
2018-04-25T22:47:31.547Z,100521
2018-04-25T22:49:59.694Z,100513
2018-04-25T22:52:27.865Z,100515
2018-04-25T22:54:56.030Z,100515
2018-04-25T22:57:24.190Z,100517
2018-04-25T22:59:52.341Z,100513
2018-04-25T23:02:21.265Z,100520
2018-04-25T23:04:49.408Z,100520
2018-04-25T23:07:17.825Z,100527
2018-04-25T23:09:45.996Z,100521
2018-04-25T23:12:14.184Z,100510
2018-04-25T23:14:43.121Z,100507
2018-04-25T23:17:11.260Z,100506
2018-04-25T23:19:39.473Z,100521
2018-04-25T23:22:07.616Z,100523
2018-04-25T23:24:36.516Z,100535
2018-04-25T23:27:05.452Z,100528
2018-04-25T23:29:33.578Z,100529
2018-04-25T23:32:02.514Z,100519
2018-04-25T23:34:30.672Z,100526
2018-04-25T23:36:58.804Z,100520
2018-04-25T23:39:26.990Z,100529
2018-04-25T23:41:55.948Z,100529
2018-04-25T23:44:24.863Z,100522
2018-04-25T23:46:53.796Z,100527
2018-04-25T23:49:21.970Z,100532
2018-04-25T23:51:50.121Z,100531
2018-04-25T23:54:18.264Z,100536
2018-04-25T23:56:46.421Z,100536
2018-04-25T23:59:14.536Z,100526
